Weather at Las Américas International Airport

Public forecast

Using degrees Celsius for public forecast. Weather courtesy of forecast.io.

Current aviation weather report (METAR) for Las Américas International Airport

Retrieved 2021/08/06 02:00 UTC (23 minutes ago):

MDSD 060200Z 00000KT 9999 FEW018 25/24 Q1018

Aviation forecast (TAF) for Las Américas International Airport

Retrieved 2021-08-06 00:13 UTC (2 hours ago):

TAF MDSD 052200Z 0600/0700 14005KT 9999 FEW018CB SCT020 TEMPO 0602/0607 7000 TSRA FEW014CB BKN016 BECMG 0602/0604 04008KT